Time;durP1;ratioP1;P1;durP2;ratioP2;P2;SDS_P1;SDS_P2;PMS_P1;PMS_P2;Temp;Humidity;BMP_temperature;BMP_pressure;BME280_temperature;BME280_humidity;BME280_pressure;Samples;Min_cycle;Max_cycle;Signal;HPM_P1;HPM_P2
2021/06/06 00:01:47;;;;;;;49.70;45.37;;;;;;;;;;5055697;28;20522;-74
2021/06/06 00:04:18;;;;;;;55.30;50.20;;;;;;;;;;5055426;28;20816;-74
2021/06/06 00:06:44;;;;;;;53.93;49.27;;;;;;;;;;5055546;28;20431;-75
2021/06/06 00:09:14;;;;;;;52.83;48.27;;;;;;;;;;5055417;28;20415;-75
2021/06/06 00:11:42;;;;;;;53.70;48.60;;;;;;;;;;5055462;28;20459;-74
2021/06/06 00:14:11;;;;;;;55.33;50.57;;;;;;;;;;5055265;28;20438;-74
2021/06/06 00:16:41;;;;;;;52.63;47.93;;;;;;;;;;5055199;28;20463;-75
2021/06/06 00:19:08;;;;;;;55.23;50.13;;;;;;;;;;5055422;28;20490;-75
2021/06/06 00:21:35;;;;;;;54.90;49.80;;;;;;;;;;5054996;28;20792;-76
2021/06/06 00:24:01;;;;;;;59.00;53.80;;;;;;;;;;5055133;28;20485;-75
2021/06/06 00:26:27;;;;;;;55.50;50.60;;;;;;;;;;5060864;28;20960;-75
2021/06/06 00:28:54;;;;;;;58.97;53.83;;;;;;;;;;5056771;28;20412;-76
2021/06/06 00:31:20;;;;;;;57.47;52.47;;;;;;;;;;5054783;28;20444;-76
2021/06/06 00:33:46;;;;;;;57.70;52.40;;;;;;;;;;5054808;28;20419;-74
2021/06/06 00:36:13;;;;;;;61.30;55.80;;;;;;;;;;5054864;28;20731;-72
2021/06/06 00:38:39;;;;;;;58.63;53.40;;;;;;;;;;5054672;28;20443;-75
2021/06/06 00:41:06;;;;;;;59.70;54.50;;;;;;;;;;5054694;28;20444;-76
2021/06/06 00:43:32;;;;;;;62.87;57.23;;;;;;;;;;5054791;28;20404;-77
2021/06/06 00:45:58;;;;;;;61.67;56.07;;;;;;;;;;5055094;28;20893;-76
2021/06/06 00:48:24;;;;;;;65.70;59.50;;;;;;;;;;5054767;28;20474;-76
2021/06/06 00:50:52;;;;;;;65.07;59.07;;;;;;;;;;5054734;28;20445;-76
2021/06/06 00:53:23;;;;;;;66.20;59.83;;;;;;;;;;5054776;28;20860;-76
2021/06/06 00:55:50;;;;;;;66.27;60.20;;;;;;;;;;5056256;28;20896;-76
2021/06/06 00:58:16;;;;;;;64.97;59.03;;;;;;;;;;5063807;28;20467;-76
2021/06/06 01:00:49;;;;;;;66.00;59.80;;;;;;;;;;5054417;28;20435;-73
2021/06/06 01:03:16;;;;;;;66.77;60.57;;;;;;;;;;5054786;28;20403;-75
2021/06/06 01:05:45;;;;;;;61.33;55.60;;;;;;;;;;5054299;28;20522;-74
2021/06/06 01:08:12;;;;;;;62.37;56.37;;;;;;;;;;5054120;28;20440;-76
2021/06/06 01:10:38;;;;;;;65.00;59.00;;;;;;;;;;5052662;28;21034;-74
2021/06/06 01:13:16;;;;;;;61.63;55.83;;;;;;;;;;5054222;28;20863;-76
2021/06/06 01:15:43;;;;;;;61.27;55.20;;;;;;;;;;5054128;28;20922;-76
2021/06/06 01:18:23;;;;;;;63.43;57.43;;;;;;;;;;5053752;28;20472;-74
2021/06/06 01:21:11;;;;;;;63.40;57.50;;;;;;;;;;5054274;28;20785;-76
2021/06/06 01:23:56;;;;;;;64.33;58.30;;;;;;;;;;5054298;28;20404;-76
2021/06/06 01:26:35;;;;;;;63.40;57.23;;;;;;;;;;5061169;28;20403;-76
2021/06/06 01:29:11;;;;;;;67.37;60.77;;;;;;;;;;5063873;28;20412;-76
2021/06/06 01:31:40;;;;;;;67.97;61.53;;;;;;;;;;5053519;28;20439;-75
2021/06/06 01:34:08;;;;;;;66.10;59.77;;;;;;;;;;5053409;28;20412;-76
2021/06/06 01:36:36;;;;;;;67.77;61.13;;;;;;;;;;5053469;28;20455;-75
2021/06/06 01:39:08;;;;;;;66.47;60.10;;;;;;;;;;5053820;28;20450;-74
2021/06/06 01:41:37;;;;;;;63.97;57.87;;;;;;;;;;5053700;28;20840;-74
2021/06/06 01:44:04;;;;;;;68.63;61.87;;;;;;;;;;5053286;28;20421;-75
2021/06/06 01:46:45;;;;;;;68.60;61.87;;;;;;;;;;5053734;28;20441;-74
2021/06/06 01:49:12;;;;;;;67.10;60.67;;;;;;;;;;5053482;28;20416;-77
2021/06/06 01:51:41;;;;;;;69.07;62.30;;;;;;;;;;5053741;28;20428;-75
2021/06/06 01:54:08;;;;;;;68.73;62.10;;;;;;;;;;5053227;28;20423;-77
2021/06/06 01:56:36;;;;;;;66.90;60.27;;;;;;;;;;5060822;28;20466;-76
2021/06/06 01:59:04;;;;;;;66.47;59.87;;;;;;;;;;5056955;28;20430;-75
2021/06/06 02:01:30;;;;;;;67.27;60.67;;;;;;;;;;5053353;28;20460;-76
2021/06/06 02:03:57;;;;;;;67.07;60.57;;;;;;;;;;5053360;28;20413;-78
2021/06/06 02:06:27;;;;;;;66.67;60.27;;;;;;;;;;5053048;28;20455;-76
2021/06/06 02:08:54;;;;;;;64.23;58.10;;;;;;;;;;5053036;28;20415;-75
2021/06/06 02:11:23;;;;;;;65.47;59.07;;;;;;;;;;5053472;28;20455;-75
2021/06/06 02:13:52;;;;;;;65.03;58.77;;;;;;;;;;5053037;28;20407;-75
2021/06/06 02:16:20;;;;;;;62.43;56.37;;;;;;;;;;5053494;28;20741;-77
2021/06/06 02:18:47;;;;;;;66.20;59.80;;;;;;;;;;5053348;28;20427;-75
2021/06/06 02:21:13;;;;;;;67.73;60.87;;;;;;;;;;5052402;28;20435;-72
2021/06/06 02:23:41;;;;;;;66.77;60.10;;;;;;;;;;5052663;28;20489;-75
2021/06/06 02:26:13;;;;;;;65.93;59.20;;;;;;;;;;5058501;28;20403;-74
2021/06/06 02:28:41;;;;;;;67.57;60.47;;;;;;;;;;5055793;28;20436;-76
2021/06/06 02:31:13;;;;;;;67.80;61.00;;;;;;;;;;5053101;28;20812;-76
2021/06/06 02:34:06;;;;;;;67.47;60.70;;;;;;;;;;5052788;28;20807;-76
2021/06/06 02:36:33;;;;;;;68.53;61.33;;;;;;;;;;5050344;28;20465;-75
2021/06/06 02:39:12;;;;;;;69.43;62.47;;;;;;;;;;5052962;28;20916;-74
2021/06/06 02:41:45;;;;;;;69.53;62.50;;;;;;;;;;5059992;28;20470;-75
2021/06/06 02:44:21;;;;;;;69.37;62.20;;;;;;;;;;5072824;28;20775;-76
2021/06/06 02:46:49;;;;;;;69.87;62.77;;;;;;;;;;5072629;28;20410;-74
2021/06/06 02:49:20;;;;;;;69.57;62.67;;;;;;;;;;5072639;28;20436;-77
2021/06/06 02:51:52;;;;;;;69.77;62.43;;;;;;;;;;5073083;28;20431;-77
2021/06/06 02:54:22;;;;;;;71.67;64.03;;;;;;;;;;5072556;28;20406;-78
2021/06/06 02:56:53;;;;;;;72.87;65.33;;;;;;;;;;5070992;28;21039;-75
2021/06/06 02:59:23;;;;;;;72.60;65.10;;;;;;;;;;5053281;28;20769;-77
2021/06/06 03:01:52;;;;;;;74.27;66.63;;;;;;;;;;5052596;28;20916;-75
2021/06/06 03:04:19;;;;;;;72.17;64.50;;;;;;;;;;5052264;28;20490;-77
2021/06/06 03:06:48;;;;;;;75.53;67.40;;;;;;;;;;5052313;28;20785;-75
2021/06/06 03:09:14;;;;;;;79.83;71.20;;;;;;;;;;5052807;28;20419;-75
2021/06/06 03:11:41;;;;;;;77.93;69.63;;;;;;;;;;5052602;28;20462;-77
2021/06/06 03:14:09;;;;;;;76.67;68.27;;;;;;;;;;5052600;28;20465;-76
2021/06/06 03:16:37;;;;;;;74.47;66.57;;;;;;;;;;5052683;28;20463;-78
2021/06/06 03:19:04;;;;;;;77.97;69.47;;;;;;;;;;5052319;28;20415;-75
2021/06/06 03:21:32;;;;;;;93.40;79.20;;;;;;;;;;5052738;28;20455;-75
2021/06/06 03:24:01;;;;;;;84.80;75.80;;;;;;;;;;5052378;28;20498;-77
2021/06/06 03:26:27;;;;;;;93.17;78.47;;;;;;;;;;5060759;28;20976;-75
2021/06/06 03:28:54;;;;;;;89.00;77.97;;;;;;;;;;5063350;28;20415;-75
2021/06/06 03:31:28;;;;;;;84.33;74.77;;;;;;;;;;5054688;28;20520;-74
2021/06/06 03:33:58;;;;;;;87.90;78.40;;;;;;;;;;5066048;28;20814;-74
2021/06/06 03:36:27;;;;;;;94.27;78.73;;;;;;;;;;5056106;28;20443;-76
2021/06/06 03:38:53;;;;;;;87.87;75.43;;;;;;;;;;5055903;28;20415;-76
2021/06/06 03:41:20;;;;;;;90.73;78.03;;;;;;;;;;5055870;28;20426;-74
2021/06/06 03:43:46;;;;;;;91.07;77.30;;;;;;;;;;5055953;28;20414;-75
2021/06/06 03:46:12;;;;;;;92.13;76.43;;;;;;;;;;5056026;28;20411;-76
2021/06/06 03:48:40;;;;;;;88.67;75.27;;;;;;;;;;5056025;28;20464;-77
2021/06/06 03:51:06;;;;;;;85.37;73.13;;;;;;;;;;5055720;28;20773;-76
2021/06/06 03:53:32;;;;;;;87.63;73.17;;;;;;;;;;5055522;28;20422;-77
2021/06/06 03:55:58;;;;;;;79.20;70.57;;;;;;;;;;5058519;28;20401;-77
2021/06/06 03:58:24;;;;;;;79.90;69.50;;;;;;;;;;5062926;28;20820;-75
2021/06/06 04:00:51;;;;;;;79.30;69.00;;;;;;;;;;5055685;28;20431;-74
2021/06/06 04:03:18;;;;;;;84.37;72.70;;;;;;;;;;5055402;28;20926;-74
2021/06/06 04:05:44;;;;;;;78.20;69.60;;;;;;;;;;5055778;28;20475;-75
2021/06/06 04:08:10;;;;;;;82.80;68.97;;;;;;;;;;5056097;28;20435;-73
2021/06/06 04:10:37;;;;;;;82.53;67.93;;;;;;;;;;5055766;28;20927;-74
2021/06/06 04:13:03;;;;;;;86.97;71.57;;;;;;;;;;5055447;28;20433;-76
2021/06/06 04:15:29;;;;;;;84.00;66.57;;;;;;;;;;5055579;28;20804;-76
2021/06/06 04:17:55;;;;;;;86.50;71.67;;;;;;;;;;5055044;28;20462;-77
2021/06/06 04:20:22;;;;;;;81.93;67.63;;;;;;;;;;5055534;28;20439;-76
2021/06/06 04:22:48;;;;;;;75.50;65.53;;;;;;;;;;5055326;28;20494;-73
2021/06/06 04:25:15;;;;;;;74.80;65.40;;;;;;;;;;5055188;28;20771;-76
2021/06/06 04:27:41;;;;;;;79.20;67.97;;;;;;;;;;5073613;28;20532;-77
2021/06/06 04:30:08;;;;;;;73.17;64.60;;;;;;;;;;5055969;28;20445;-76
2021/06/06 04:32:35;;;;;;;77.87;64.83;;;;;;;;;;5055278;28;20526;-73
2021/06/06 04:35:01;;;;;;;80.57;63.07;;;;;;;;;;5056368;28;20420;-75
2021/06/06 04:37:27;;;;;;;79.10;67.97;;;;;;;;;;5058138;28;20472;-74
2021/06/06 04:39:53;;;;;;;73.50;64.50;;;;;;;;;;5052007;28;20419;-74
2021/06/06 04:42:21;;;;;;;77.33;66.90;;;;;;;;;;5051372;28;20415;-78
2021/06/06 04:44:47;;;;;;;74.87;64.37;;;;;;;;;;5050224;28;20515;-76
2021/06/06 04:47:13;;;;;;;79.60;64.80;;;;;;;;;;5053059;28;20486;-77
2021/06/06 04:49:41;;;;;;;76.90;65.30;;;;;;;;;;5053341;28;20496;-77
2021/06/06 04:52:08;;;;;;;81.87;64.67;;;;;;;;;;5058026;28;20442;-79
2021/06/06 04:54:34;;;;;;;75.50;63.90;;;;;;;;;;5050796;28;20421;-75
2021/06/06 04:57:00;;;;;;;73.77;59.77;;;;;;;;;;5062307;28;20465;-77
2021/06/06 04:59:26;;;;;;;81.30;67.07;;;;;;;;;;5050647;28;20442;-76
2021/06/06 05:01:53;;;;;;;85.50;68.03;;;;;;;;;;5050545;28;20438;-77
2021/06/06 05:04:19;;;;;;;81.87;67.50;;;;;;;;;;5050794;28;20886;-78
2021/06/06 05:06:45;;;;;;;76.47;63.70;;;;;;;;;;5050684;28;20472;-75
2021/06/06 05:09:12;;;;;;;84.40;67.77;;;;;;;;;;5050571;28;20927;-76
2021/06/06 05:11:38;;;;;;;82.17;65.30;;;;;;;;;;5050493;28;20864;-78
2021/06/06 05:14:05;;;;;;;77.30;63.80;;;;;;;;;;5050500;28;20742;-76
2021/06/06 05:16:32;;;;;;;74.33;61.40;;;;;;;;;;5050393;28;20426;-79
2021/06/06 05:18:58;;;;;;;76.73;64.50;;;;;;;;;;5050366;28;20415;-76
2021/06/06 05:21:25;;;;;;;71.13;61.53;;;;;;;;;;5050497;28;20484;-75
2021/06/06 05:23:51;;;;;;;75.33;62.33;;;;;;;;;;5050180;28;20415;-76
2021/06/06 05:26:17;;;;;;;76.33;63.20;;;;;;;;;;5057164;28;20509;-74
2021/06/06 05:28:44;;;;;;;70.53;59.47;;;;;;;;;;5062310;28;20412;-74
2021/06/06 05:31:11;;;;;;;78.40;63.17;;;;;;;;;;5050115;28;20442;-77
2021/06/06 05:33:37;;;;;;;72.43;60.50;;;;;;;;;;5050164;28;20479;-76
2021/06/06 05:36:03;;;;;;;73.53;60.73;;;;;;;;;;5050114;28;20426;-72
2021/06/06 05:38:31;;;;;;;71.13;60.57;;;;;;;;;;5050034;28;20934;-74
2021/06/06 05:40:58;;;;;;;72.10;61.20;;;;;;;;;;5050077;28;20473;-75
2021/06/06 05:43:26;;;;;;;70.93;59.33;;;;;;;;;;5050106;28;20497;-75
2021/06/06 05:45:52;;;;;;;68.27;57.47;;;;;;;;;;5049950;28;20453;-77
2021/06/06 05:48:18;;;;;;;61.40;54.80;;;;;;;;;;5050053;28;20940;-78
2021/06/06 05:50:46;;;;;;;64.50;55.47;;;;;;;;;;5049800;28;20441;-77
2021/06/06 05:53:12;;;;;;;60.97;52.80;;;;;;;;;;5049841;28;20480;-78
2021/06/06 05:55:38;;;;;;;56.93;50.67;;;;;;;;;;5049872;28;20426;-77
2021/06/06 05:58:05;;;;;;;56.00;49.93;;;;;;;;;;5061080;28;20562;-75
2021/06/06 06:00:42;;;;;;;51.50;46.10;;;;;;;;;;5049697;28;20435;-78
2021/06/06 06:03:09;;;;;;;50.30;44.90;;;;;;;;;;5049946;28;20411;-78
2021/06/06 06:05:35;;;;;;;49.00;43.80;;;;;;;;;;5049665;28;20434;-77
2021/06/06 06:08:20;;;;;;;48.23;43.27;;;;;;;;;;5048385;28;20872;-76
2021/06/06 06:10:47;;;;;;;48.03;43.07;;;;;;;;;;5049452;28;20434;-78
2021/06/06 06:13:14;;;;;;;49.57;44.50;;;;;;;;;;5049592;28;20472;-78
2021/06/06 06:15:40;;;;;;;46.60;41.70;;;;;;;;;;5049443;28;20415;-77
2021/06/06 06:18:07;;;;;;;47.43;42.43;;;;;;;;;;5049172;28;20549;-76
2021/06/06 06:20:32;;;;;;;45.37;40.70;;;;;;;;;;5049466;28;20427;-75
2021/06/06 06:22:58;;;;;;;47.33;42.50;;;;;;;;;;5049335;28;20419;-78
2021/06/06 06:25:24;;;;;;;48.97;43.80;;;;;;;;;;5049249;28;20419;-74
2021/06/06 06:27:50;;;;;;;46.20;41.40;;;;;;;;;;5068229;28;20500;-77
2021/06/06 06:30:19;;;;;;;46.17;41.40;;;;;;;;;;5049232;28;20431;-75
2021/06/06 06:32:45;;;;;;;45.57;40.87;;;;;;;;;;5049130;28;20430;-74
2021/06/06 06:35:11;;;;;;;48.50;43.10;;;;;;;;;;5049274;28;20433;-77
2021/06/06 06:37:37;;;;;;;49.60;44.47;;;;;;;;;;5049034;28;20466;-73
2021/06/06 06:40:05;;;;;;;50.07;42.27;;;;;;;;;;5049028;28;20761;-75
2021/06/06 06:42:31;;;;;;;48.97;42.67;;;;;;;;;;5049203;28;20870;-76
2021/06/06 06:44:57;;;;;;;51.13;45.53;;;;;;;;;;5049034;28;20447;-79
2021/06/06 06:47:23;;;;;;;48.87;43.70;;;;;;;;;;5049257;28;20442;-75
2021/06/06 06:49:51;;;;;;;49.30;44.10;;;;;;;;;;5048986;28;20423;-78
2021/06/06 06:52:17;;;;;;;51.73;46.30;;;;;;;;;;5048989;28;20535;-77
2021/06/06 06:54:43;;;;;;;48.47;43.30;;;;;;;;;;5049136;28;20459;-78
2021/06/06 06:57:09;;;;;;;50.63;45.27;;;;;;;;;;5059208;28;20500;-77
2021/06/06 06:59:36;;;;;;;49.53;44.33;;;;;;;;;;5048978;28;20419;-78
2021/06/06 07:02:03;;;;;;;50.43;44.37;;;;;;;;;;5048896;28;20431;-78
2021/06/06 07:04:30;;;;;;;49.50;44.23;;;;;;;;;;5048874;28;20498;-74
2021/06/06 07:06:56;;;;;;;50.20;45.03;;;;;;;;;;5050016;28;20442;-80
2021/06/06 07:09:23;;;;;;;48.10;42.90;;;;;;;;;;5052979;28;20430;-79
2021/06/06 07:11:50;;;;;;;48.63;43.47;;;;;;;;;;5052780;28;20480;-77
2021/06/06 07:14:16;;;;;;;49.80;44.33;;;;;;;;;;5053076;28;20436;-75
2021/06/06 07:16:42;;;;;;;51.90;46.30;;;;;;;;;;5052920;28;20470;-75
2021/06/06 07:19:08;;;;;;;51.20;45.70;;;;;;;;;;5052980;28;20422;-76
2021/06/06 07:21:35;;;;;;;55.33;49.27;;;;;;;;;;5052831;28;21052;-76
2021/06/06 07:24:01;;;;;;;50.20;44.70;;;;;;;;;;5051382;28;20784;-78
2021/06/06 07:26:33;;;;;;;49.40;43.90;;;;;;;;;;5060791;28;20429;-76
2021/06/06 07:29:00;;;;;;;49.63;43.80;;;;;;;;;;5062479;28;20414;-77
2021/06/06 07:31:26;;;;;;;50.60;45.00;;;;;;;;;;5052986;28;20435;-76
2021/06/06 07:33:52;;;;;;;56.33;44.47;;;;;;;;;;5052682;28;20418;-78
2021/06/06 07:36:20;;;;;;;47.13;41.33;;;;;;;;;;5052305;28;20418;-76
2021/06/06 07:38:47;;;;;;;48.10;42.33;;;;;;;;;;5052279;28;20490;-76
2021/06/06 07:41:13;;;;;;;47.47;42.30;;;;;;;;;;5050894;28;20522;-79
2021/06/06 07:43:39;;;;;;;47.40;42.17;;;;;;;;;;5052383;28;20407;-76
2021/06/06 07:46:05;;;;;;;50.93;42.70;;;;;;;;;;5052203;28;20469;-76
2021/06/06 07:48:31;;;;;;;47.63;42.43;;;;;;;;;;5051932;28;20407;-76
2021/06/06 07:50:57;;;;;;;47.90;41.67;;;;;;;;;;5052049;28;20936;-80
2021/06/06 07:53:23;;;;;;;45.40;40.60;;;;;;;;;;5052031;28;20419;-79
2021/06/06 07:55:50;;;;;;;45.10;40.27;;;;;;;;;;5053627;28;20419;-77
2021/06/06 07:58:19;;;;;;;43.40;38.50;;;;;;;;;;5061425;28;20470;-78
2021/06/06 08:00:45;;;;;;;46.87;42.00;;;;;;;;;;5051972;28;20518;-78
2021/06/06 08:03:11;;;;;;;42.03;37.60;;;;;;;;;;5051808;28;20545;-80
2021/06/06 08:05:38;;;;;;;42.60;38.10;;;;;;;;;;5051818;28;20500;-78
2021/06/06 08:08:05;;;;;;;40.27;36.07;;;;;;;;;;5051440;28;20426;-78
2021/06/06 08:10:35;;;;;;;43.13;38.43;;;;;;;;;;5051713;28;20959;-78
2021/06/06 08:13:01;;;;;;;43.07;38.87;;;;;;;;;;5051530;28;20498;-74
2021/06/06 08:15:28;;;;;;;46.20;41.33;;;;;;;;;;5051550;28;20793;-78
2021/06/06 08:17:56;;;;;;;45.30;39.70;;;;;;;;;;5050787;28;20463;-79
2021/06/06 08:20:24;;;;;;;46.57;41.77;;;;;;;;;;5050658;28;20442;-79
2021/06/06 08:22:50;;;;;;;43.70;39.20;;;;;;;;;;5051294;28;20499;-77
2021/06/06 08:25:18;;;;;;;46.53;41.60;;;;;;;;;;5051541;28;20476;-79
2021/06/06 08:27:44;;;;;;;47.57;42.53;;;;;;;;;;5080338;28;20461;-77
2021/06/06 08:30:15;;;;;;;44.40;39.60;;;;;;;;;;5051568;28;20769;-81
2021/06/06 08:32:41;;;;;;;49.93;44.03;;;;;;;;;;5060846;28;20450;-80
2021/06/06 08:35:07;;;;;;;46.93;42.13;;;;;;;;;;5065008;28;20907;-76
2021/06/06 08:37:34;;;;;;;47.97;41.47;;;;;;;;;;5051302;28;20561;-78
2021/06/06 08:40:00;;;;;;;50.80;44.93;;;;;;;;;;5051375;28;20425;-74
2021/06/06 08:42:27;;;;;;;47.93;42.63;;;;;;;;;;5049985;28;20863;-80
2021/06/06 08:45:00;;;;;;;51.30;43.50;;;;;;;;;;5050936;28;20911;-77
2021/06/06 08:47:28;;;;;;;49.63;44.30;;;;;;;;;;5051347;28;20476;-78
2021/06/06 08:49:57;;;;;;;46.50;40.73;;;;;;;;;;5051143;28;20415;-77
2021/06/06 08:52:23;;;;;;;47.27;41.40;;;;;;;;;;5051303;28;20505;-80
2021/06/06 08:55:02;;;;;;;46.87;41.93;;;;;;;;;;5064473;28;20835;-73
2021/06/06 08:57:37;;;;;;;48.13;41.87;;;;;;;;;;5052857;28;20466;-76
2021/06/06 09:00:07;;;;;;;46.97;41.50;;;;;;;;;;5058476;28;20418;-80
2021/06/06 09:02:46;;;;;;;50.80;43.83;;;;;;;;;;5070763;28;20493;-76
2021/06/06 09:05:17;;;;;;;50.43;42.50;;;;;;;;;;5070808;28;20442;-75
2021/06/06 09:07:46;;;;;;;47.50;42.37;;;;;;;;;;5066799;28;20415;-74
2021/06/06 09:10:15;;;;;;;51.60;43.30;;;;;;;;;;5050548;28;20884;-75
2021/06/06 09:12:42;;;;;;;49.30;41.57;;;;;;;;;;5050431;28;20404;-79
2021/06/06 09:15:10;;;;;;;50.80;42.60;;;;;;;;;;5049170;28;20423;-76
2021/06/06 09:17:46;;;;;;;49.70;42.33;;;;;;;;;;5050274;28;20487;-76
2021/06/06 09:20:24;;;;;;;49.40;43.40;;;;;;;;;;5050287;28;20480;-75
2021/06/06 09:22:50;;;;;;;50.20;43.43;;;;;;;;;;5050209;28;20412;-73
2021/06/06 09:25:29;;;;;;;49.70;43.40;;;;;;;;;;5051044;28;20424;-78
2021/06/06 09:28:03;;;;;;;46.27;41.33;;;;;;;;;;5063292;28;20413;-76
2021/06/06 09:30:29;;;;;;;49.33;42.80;;;;;;;;;;5050087;28;20431;-74
2021/06/06 09:33:06;;;;;;;46.80;40.10;;;;;;;;;;5049981;28;20451;-76
2021/06/06 09:35:35;;;;;;;46.27;41.50;;;;;;;;;;5050680;28;20805;-76
2021/06/06 09:38:05;;;;;;;46.00;40.77;;;;;;;;;;5050383;28;20817;-79
2021/06/06 09:40:34;;;;;;;45.40;39.77;;;;;;;;;;5050393;28;21164;-76
2021/06/06 09:43:00;;;;;;;43.93;39.40;;;;;;;;;;5049878;28;20503;-80
2021/06/06 09:45:26;;;;;;;44.30;39.40;;;;;;;;;;5050253;28;20418;-77
2021/06/06 09:48:18;;;;;;;42.67;37.90;;;;;;;;;;5049831;28;20447;-77
2021/06/06 09:50:46;;;;;;;40.87;36.53;;;;;;;;;;5049875;28;20920;-78
2021/06/06 09:53:18;;;;;;;41.87;37.67;;;;;;;;;;5049799;28;20427;-76
2021/06/06 09:55:44;;;;;;;39.93;35.77;;;;;;;;;;5049796;28;20502;-78
2021/06/06 09:58:20;;;;;;;43.50;36.37;;;;;;;;;;5049807;28;21056;-74
2021/06/06 10:00:49;;;;;;;42.23;37.23;;;;;;;;;;5049900;28;20435;-72
2021/06/06 10:03:32;;;;;;;41.77;37.13;;;;;;;;;;5049823;28;20418;-73
2021/06/06 10:06:13;;;;;;;43.27;38.57;;;;;;;;;;5049706;28;20447;-77
2021/06/06 10:08:40;;;;;;;43.23;38.40;;;;;;;;;;5049738;28;20438;-72
2021/06/06 10:11:11;;;;;;;40.53;36.13;;;;;;;;;;5049719;28;20519;-76
2021/06/06 10:13:37;;;;;;;41.10;36.97;;;;;;;;;;5049430;28;20513;-76
2021/06/06 10:16:07;;;;;;;42.03;37.50;;;;;;;;;;5049641;28;20812;-75
2021/06/06 10:18:36;;;;;;;39.50;35.40;;;;;;;;;;5048993;28;20809;-73
2021/06/06 10:21:07;;;;;;;38.73;34.20;;;;;;;;;;5049506;28;20444;-72
2021/06/06 10:23:42;;;;;;;39.93;35.67;;;;;;;;;;5049161;28;20412;-75
2021/06/06 10:26:13;;;;;;;41.00;36.50;;;;;;;;;;5054946;28;20791;-74
2021/06/06 10:28:42;;;;;;;39.63;35.17;;;;;;;;;;5052271;28;20411;-72
2021/06/06 10:31:23;;;;;;;40.43;36.17;;;;;;;;;;5049220;28;20867;-73
2021/06/06 10:33:54;;;;;;;43.50;38.70;;;;;;;;;;5049036;28;20486;-75
2021/06/06 10:36:21;;;;;;;41.20;36.90;;;;;;;;;;5049235;28;21070;-72
2021/06/06 10:38:48;;;;;;;39.70;35.50;;;;;;;;;;5049299;28;20475;-74
2021/06/06 10:41:17;;;;;;;39.07;34.90;;;;;;;;;;5048670;28;20471;-76
2021/06/06 10:43:55;;;;;;;38.30;34.50;;;;;;;;;;5048820;28;20412;-75
2021/06/06 10:46:25;;;;;;;37.40;33.50;;;;;;;;;;5049138;28;20427;-73
2021/06/06 10:48:55;;;;;;;38.63;33.97;;;;;;;;;;5049211;28;20521;-74
2021/06/06 10:51:35;;;;;;;39.70;33.80;;;;;;;;;;5049227;28;20436;-73
2021/06/06 10:54:08;;;;;;;36.87;33.00;;;;;;;;;;5048732;28;21239;-74
2021/06/06 10:56:52;;;;;;;37.37;33.73;;;;;;;;;;5049261;28;20512;-75
2021/06/06 10:59:27;;;;;;;36.53;32.90;;;;;;;;;;5048849;28;20428;-76
2021/06/06 11:01:54;;;;;;;35.07;31.70;;;;;;;;;;5049071;28;20489;-75
2021/06/06 11:04:23;;;;;;;35.93;32.63;;;;;;;;;;5048770;28;20418;-73
2021/06/06 11:07:00;;;;;;;36.57;32.87;;;;;;;;;;5049367;28;20483;-77
2021/06/06 11:09:29;;;;;;;39.33;35.63;;;;;;;;;;5048952;28;20422;-77
2021/06/06 11:12:00;;;;;;;35.67;32.07;;;;;;;;;;5049021;28;20443;-74
2021/06/06 11:14:38;;;;;;;37.40;33.40;;;;;;;;;;5048769;28;20434;-73
2021/06/06 11:17:13;;;;;;;37.33;33.80;;;;;;;;;;5048940;28;20518;-74
2021/06/06 11:19:39;;;;;;;36.30;32.90;;;;;;;;;;5048721;28;20433;-76
2021/06/06 11:22:13;;;;;;;35.50;32.07;;;;;;;;;;5048819;28;20914;-73
2021/06/06 11:24:42;;;;;;;36.40;33.00;;;;;;;;;;5053307;28;20420;-77
2021/06/06 11:27:11;;;;;;;37.13;33.70;;;;;;;;;;5062526;28;20430;-77
2021/06/06 11:29:46;;;;;;;36.17;32.63;;;;;;;;;;5053436;28;20612;-77
2021/06/06 11:32:14;;;;;;;36.23;32.60;;;;;;;;;;5048981;28;20442;-76
2021/06/06 11:35:03;;;;;;;36.27;32.93;;;;;;;;;;5048473;28;20419;-74
2021/06/06 11:37:29;;;;;;;35.67;32.27;;;;;;;;;;5047114;28;20467;-74
2021/06/06 11:39:56;;;;;;;34.80;31.37;;;;;;;;;;5048418;28;20424;-74
2021/06/06 11:42:22;;;;;;;35.30;31.90;;;;;;;;;;5048604;28;20545;-76
2021/06/06 11:44:51;;;;;;;36.40;32.80;;;;;;;;;;5048784;28;20414;-72
2021/06/06 11:47:23;;;;;;;36.57;33.00;;;;;;;;;;5047605;28;20982;-72
2021/06/06 11:49:52;;;;;;;39.10;35.57;;;;;;;;;;5049960;28;20896;-74
2021/06/06 11:52:24;;;;;;;37.80;34.27;;;;;;;;;;5048595;28;20804;-76
2021/06/06 11:54:53;;;;;;;36.03;32.60;;;;;;;;;;5052241;28;20519;-77
2021/06/06 11:57:22;;;;;;;37.13;33.63;;;;;;;;;;5052380;28;20816;-77
2021/06/06 12:00:12;;;;;;;36.87;33.43;;;;;;;;;;5052051;28;20733;-77
2021/06/06 12:02:39;;;;;;;38.57;34.77;;;;;;;;;;5052044;28;20403;-76
2021/06/06 12:05:12;;;;;;;37.13;33.47;;;;;;;;;;5063850;28;20407;-76
2021/06/06 12:07:44;;;;;;;37.93;34.33;;;;;;;;;;5055043;28;21310;-76
2021/06/06 12:10:20;;;;;;;38.23;34.43;;;;;;;;;;5051800;28;20413;-74
2021/06/06 12:12:49;;;;;;;35.73;32.33;;;;;;;;;;5051691;28;21070;-75
2021/06/06 12:15:18;;;;;;;38.50;34.90;;;;;;;;;;5064876;28;20971;-75
2021/06/06 12:17:44;;;;;;;37.40;34.00;;;;;;;;;;5051709;28;20466;-76
2021/06/06 12:20:20;;;;;;;36.20;32.90;;;;;;;;;;5052648;28;20407;-78
2021/06/06 12:22:47;;;;;;;37.73;34.07;;;;;;;;;;5052507;28;20490;-77
2021/06/06 12:25:17;;;;;;;36.30;32.80;;;;;;;;;;5052894;28;20450;-75
2021/06/06 12:27:44;;;;;;;37.40;33.93;;;;;;;;;;5070205;28;20426;-76
2021/06/06 12:30:13;;;;;;;37.40;33.80;;;;;;;;;;5051915;28;20450;-73
2021/06/06 12:32:47;;;;;;;38.33;34.73;;;;;;;;;;5051622;28;20757;-74
2021/06/06 12:35:18;;;;;;;35.67;32.30;;;;;;;;;;5051801;28;20422;-75
2021/06/06 12:37:47;;;;;;;38.63;34.73;;;;;;;;;;5051573;28;20467;-75
2021/06/06 12:40:14;;;;;;;35.80;32.10;;;;;;;;;;5051403;28;20415;-74
2021/06/06 12:42:40;;;;;;;39.03;35.03;;;;;;;;;;5049881;28;20507;-75
2021/06/06 12:45:08;;;;;;;37.33;33.63;;;;;;;;;;5051295;28;20430;-74
2021/06/06 12:47:36;;;;;;;37.20;33.60;;;;;;;;;;5049611;28;20765;-73
2021/06/06 12:50:07;;;;;;;37.97;34.37;;;;;;;;;;5051232;28;20800;-76
2021/06/06 12:52:37;;;;;;;38.60;34.70;;;;;;;;;;5054431;28;20441;-74
2021/06/06 12:55:19;;;;;;;39.87;35.90;;;;;;;;;;5060298;28;20912;-73
2021/06/06 12:57:59;;;;;;;58.17;52.23;;;;;;;;;;5050646;28;20559;-75
2021/06/06 13:00:28;;;;;;;41.00;36.90;;;;;;;;;;5050803;28;20526;-74
2021/06/06 13:02:54;;;;;;;40.63;36.50;;;;;;;;;;5050704;28;20416;-73
2021/06/06 13:05:34;;;;;;;38.87;35.07;;;;;;;;;;5049861;28;20797;-75
2021/06/06 13:08:03;;;;;;;40.53;36.43;;;;;;;;;;5050836;28;20481;-76
2021/06/06 13:10:31;;;;;;;38.87;35.03;;;;;;;;;;5050527;28;20439;-73
2021/06/06 13:12:57;;;;;;;41.37;37.30;;;;;;;;;;5050846;28;20781;-74
2021/06/06 13:15:32;;;;;;;42.73;38.33;;;;;;;;;;5050591;28;20430;-75
2021/06/06 13:17:59;;;;;;;32.27;29.07;;;;;;;;;;5050358;28;21010;-75
2021/06/06 13:20:32;;;;;;;39.50;35.50;;;;;;;;;;5050383;28;20443;-76
2021/06/06 13:23:03;;;;;;;40.47;36.33;;;;;;;;;;5050436;28;20939;-76
2021/06/06 13:25:41;;;;;;;40.37;36.27;;;;;;;;;;5050680;28;20420;-75
2021/06/06 13:28:14;;;;;;;40.83;36.67;;;;;;;;;;5067539;28;20421;-76
2021/06/06 13:30:45;;;;;;;41.77;37.57;;;;;;;;;;5050270;28;20431;-75
2021/06/06 13:33:13;;;;;;;41.43;37.23;;;;;;;;;;5050306;28;20415;-76
2021/06/06 13:35:39;;;;;;;41.47;37.13;;;;;;;;;;5050544;28;20407;-76
2021/06/06 13:38:06;;;;;;;39.87;35.73;;;;;;;;;;5050117;28;20472;-75
2021/06/06 13:40:35;;;;;;;41.03;36.63;;;;;;;;;;5050195;28;20967;-75
2021/06/06 13:43:01;;;;;;;39.60;35.57;;;;;;;;;;5050145;28;20422;-76
2021/06/06 13:45:28;;;;;;;39.37;35.30;;;;;;;;;;5050220;28;20526;-76
2021/06/06 13:47:55;;;;;;;39.23;35.17;;;;;;;;;;5049903;28;20421;-75
2021/06/06 13:50:21;;;;;;;38.43;34.53;;;;;;;;;;5050002;28;20777;-76
2021/06/06 13:52:47;;;;;;;37.37;33.67;;;;;;;;;;5049602;28;21142;-76
2021/06/06 13:55:19;;;;;;;35.50;32.00;;;;;;;;;;5050019;28;20439;-79
2021/06/06 13:57:45;;;;;;;36.43;32.80;;;;;;;;;;5049530;28;20475;-75
2021/06/06 14:00:12;;;;;;;36.07;32.37;;;;;;;;;;5049908;28;20416;-77
2021/06/06 14:02:41;;;;;;;35.00;31.40;;;;;;;;;;5049359;28;20413;-75
2021/06/06 14:05:08;;;;;;;35.80;32.20;;;;;;;;;;5049689;28;20454;-76
2021/06/06 14:07:34;;;;;;;33.37;29.97;;;;;;;;;;5056158;28;20825;-77
2021/06/06 14:10:00;;;;;;;32.83;29.63;;;;;;;;;;5069668;28;20468;-77
2021/06/06 14:12:26;;;;;;;33.80;30.50;;;;;;;;;;5064253;28;20494;-75
2021/06/06 14:14:52;;;;;;;33.50;30.20;;;;;;;;;;5049346;28;20514;-75
2021/06/06 14:17:18;;;;;;;34.70;30.97;;;;;;;;;;5048436;28;20840;-75
2021/06/06 14:19:44;;;;;;;34.10;30.80;;;;;;;;;;5049435;28;20415;-75
2021/06/06 14:22:10;;;;;;;35.10;31.63;;;;;;;;;;5049264;28;20518;-74
2021/06/06 14:24:36;;;;;;;36.77;32.97;;;;;;;;;;5048972;28;20419;-73
2021/06/06 14:27:06;;;;;;;37.77;33.73;;;;;;;;;;5062355;28;20769;-77